Time;durP1;ratioP1;P1;durP2;ratioP2;P2;SDS_P1;SDS_P2;PMS_P1;PMS_P2;Temp;Humidity;BMP_temperature;BMP_pressure;BME280_temperature;BME280_humidity;BME280_pressure;Samples;Min_cycle;Max_cycle;Signal;HPM_P1;HPM_P2
2023/05/26 00:01:47;;;;;;;25.13;5.55;;;;;;;9.71;92.66;102808.00;4989880;28;20057;-72
2023/05/26 00:04:16;;;;;;;20.83;4.38;;;;;;;9.65;92.92;102801.41;4989955;28;20529;-71
2023/05/26 00:06:43;;;;;;;15.88;4.22;;;;;;;9.62;93.38;102807.88;4989931;28;20458;-71
2023/05/26 00:09:08;;;;;;;16.40;4.30;;;;;;;9.59;93.67;102812.66;4989868;28;20088;-71
2023/05/26 00:11:33;;;;;;;21.52;4.25;;;;;;;9.57;94.02;102810.13;4989865;28;20038;-71
2023/05/26 00:13:59;;;;;;;20.33;4.68;;;;;;;9.53;94.42;102814.03;4989841;28;20112;-71
2023/05/26 00:16:24;;;;;;;14.15;3.95;;;;;;;9.49;94.42;102809.97;4989751;28;20037;-71
2023/05/26 00:18:50;;;;;;;16.60;4.57;;;;;;;9.44;94.61;102817.56;4972188;28;20433;-71
2023/05/26 00:21:15;;;;;;;16.85;3.53;;;;;;;9.46;94.74;102817.41;4989552;28;20114;-71
2023/05/26 00:23:40;;;;;;;21.30;5.30;;;;;;;9.37;94.71;102813.75;4989693;28;20062;-71
2023/05/26 00:26:07;;;;;;;21.42;4.80;;;;;;;9.31;96.37;102817.84;4989716;28;20073;-71
2023/05/26 00:28:32;;;;;;;23.45;6.88;;;;;;;9.23;96.13;102815.03;4989714;28;20130;-71
2023/05/26 00:30:58;;;;;;;17.83;3.88;;;;;;;9.29;96.00;102818.94;4989759;28;20433;-71
2023/05/26 00:33:23;;;;;;;19.67;4.97;;;;;;;9.26;96.06;102825.41;4989643;28;20026;-71
2023/05/26 00:35:48;;;;;;;20.95;5.45;;;;;;;9.20;96.49;102825.97;4989776;28;20048;-71
2023/05/26 00:38:14;;;;;;;13.68;3.78;;;;;;;9.18;96.73;102828.75;4989542;28;20034;-71
2023/05/26 00:40:39;;;;;;;21.38;4.30;;;;;;;9.13;97.06;102828.31;4989504;28;20500;-71
2023/05/26 00:43:05;;;;;;;19.52;5.75;;;;;;;9.12;96.73;102821.31;4989528;28;20053;-71
2023/05/26 00:45:30;;;;;;;22.27;5.90;;;;;;;9.10;96.95;102825.94;4989511;28;20926;-71
2023/05/26 00:47:55;;;;;;;16.55;5.32;;;;;;;9.07;96.88;102825.38;4989415;28;20184;-71
2023/05/26 00:50:22;;;;;;;13.23;4.38;;;;;;;9.03;97.41;102822.13;4989420;28;20045;-71
2023/05/26 00:52:47;;;;;;;18.60;4.00;;;;;;;8.97;97.72;102826.19;4989335;28;20276;-71
2023/05/26 00:55:13;;;;;;;14.90;4.25;;;;;;;8.94;98.13;102823.81;4989219;28;20564;-71
2023/05/26 00:57:39;;;;;;;17.25;4.35;;;;;;;8.90;98.88;102819.72;4989427;28;20393;-71
2023/05/26 01:00:11;;;;;;;14.55;3.70;;;;;;;8.85;98.67;102826.44;4971745;28;20092;-71
2023/05/26 01:02:39;;;;;;;22.65;5.60;;;;;;;8.85;98.98;102834.44;4972375;28;20062;-71
2023/05/26 01:05:06;;;;;;;18.85;4.80;;;;;;;8.85;99.35;102831.75;4989167;28;20049;-71
2023/05/26 01:07:32;;;;;;;22.15;5.47;;;;;;;8.78;98.77;102834.16;4974115;28;20486;-71
2023/05/26 01:09:57;;;;;;;18.20;4.55;;;;;;;8.75;99.33;102835.25;4970804;28;20034;-71
2023/05/26 01:12:33;;;;;;;20.58;3.80;;;;;;;8.71;100.00;102836.50;4970596;28;20133;-71
2023/05/26 01:15:15;;;;;;;25.63;5.15;;;;;;;8.68;100.00;102831.44;4970710;28;20041;-71
2023/05/26 01:17:46;;;;;;;;;;;;;;;8.70;96.90;102828.66;4971140;28;20037;-71
2023/05/26 01:20:18;;;;;;;21.63;4.63;;;;;;;8.62;100.00;102834.66;4953125;28;20723;-71
2023/05/26 01:22:50;;;;;;;19.17;5.45;;;;;;;8.62;100.00;102837.31;4970528;28;20026;-71
2023/05/26 01:25:46;;;;;;;16.65;4.43;;;;;;;8.62;99.98;102841.78;4988620;28;20045;-71
2023/05/26 01:28:19;;;;;;;18.60;3.97;;;;;;;8.53;100.00;102838.94;4989149;28;20478;-71
2023/05/26 01:30:45;;;;;;;13.70;6.18;;;;;;;8.52;100.00;102839.94;4989096;28;20034;-71
2023/05/26 01:33:11;;;;;;;15.52;5.28;;;;;;;8.46;100.00;102844.94;4992327;28;20030;-71
2023/05/26 01:35:36;;;;;;;19.08;3.63;;;;;;;8.47;100.00;102847.47;4992866;28;20086;-71
2023/05/26 01:38:03;;;;;;;18.38;4.60;;;;;;;8.38;100.00;102826.94;4974001;28;20097;-71
2023/05/26 01:40:29;;;;;;;16.77;3.78;;;;;;;8.39;100.00;102836.66;4974100;28;20030;-71
2023/05/26 01:43:02;;;;;;;27.75;4.90;;;;;;;8.40;100.00;102840.16;4973967;28;20390;-71
2023/05/26 01:45:36;;;;;;;18.15;4.35;;;;;;;8.38;100.00;102844.72;4974067;28;20027;-71
2023/05/26 01:48:02;;;;;;;16.63;4.55;;;;;;;8.28;100.00;102840.22;4992282;28;20061;-71
2023/05/26 01:50:55;;;;;;;19.40;5.50;;;;;;;8.31;100.00;102842.59;4992555;28;20038;-71
2023/05/26 01:53:26;;;;;;;19.70;3.80;;;;;;;8.23;100.00;102841.59;4984818;28;20042;-71
2023/05/26 01:55:56;;;;;;;18.27;5.85;;;;;;;8.23;100.00;102836.28;4974640;28;20039;-71
2023/05/26 01:58:22;;;;;;;19.15;3.40;;;;;;;8.20;100.00;102842.69;4992469;28;20086;-71
2023/05/26 02:00:48;;;;;;;12.60;3.13;;;;;;;8.17;100.00;102844.75;4992463;28;20509;-71
2023/05/26 02:03:15;;;;;;;23.27;6.10;;;;;;;8.11;100.00;102841.66;4992078;28;20081;-71
2023/05/26 02:05:41;;;;;;;16.52;3.65;;;;;;;8.10;100.00;102847.94;4992261;28;20372;-71
2023/05/26 02:08:06;;;;;;;15.82;4.85;;;;;;;8.09;100.00;102848.06;4992123;28;20030;-71
2023/05/26 02:10:32;;;;;;;26.45;5.22;;;;;;;8.04;100.00;102845.84;4991989;28;20421;-71
2023/05/26 02:12:57;;;;;;;22.70;3.80;;;;;;;8.00;100.00;102846.22;4992424;28;20031;-71
2023/05/26 02:15:22;;;;;;;19.42;3.88;;;;;;;7.93;100.00;102843.22;4992148;28;20162;-71
2023/05/26 02:17:48;;;;;;;17.55;3.97;;;;;;;7.94;100.00;102854.69;4991961;28;20026;-71
2023/05/26 02:20:15;;;;;;;20.30;5.28;;;;;;;7.88;100.00;102843.59;4992032;28;20484;-71
2023/05/26 02:22:40;;;;;;;19.85;4.60;;;;;;;7.92;100.00;102851.34;4991945;28;20868;-71
2023/05/26 02:25:06;;;;;;;22.67;5.53;;;;;;;7.90;100.00;102864.75;4978053;28;20031;-71
2023/05/26 02:27:32;;;;;;;19.15;4.70;;;;;;;7.87;100.00;102857.03;4973084;28;20063;-71
2023/05/26 02:29:57;;;;;;;17.88;4.47;;;;;;;7.83;100.00;102855.59;4973369;28;20479;-71
2023/05/26 02:32:23;;;;;;;14.68;4.00;;;;;;;7.85;100.00;102865.13;4973121;28;20030;-71
2023/05/26 02:34:49;;;;;;;18.23;6.07;;;;;;;7.83;100.00;102859.13;4973161;28;20038;-71
2023/05/26 02:37:17;;;;;;;25.35;6.28;;;;;;;7.79;100.00;102854.19;4973029;28;20086;-71
2023/05/26 02:39:42;;;;;;;17.63;4.82;;;;;;;7.82;100.00;102860.06;4983615;28;20057;-71
2023/05/26 02:42:08;;;;;;;16.00;6.05;;;;;;;7.78;100.00;102852.47;4991272;28;20438;-71
2023/05/26 02:44:33;;;;;;;17.98;4.40;;;;;;;7.63;100.00;102839.53;4991616;28;20042;-71
2023/05/26 02:46:58;;;;;;;11.48;4.47;;;;;;;7.72;100.00;102853.84;4991655;28;20031;-71
2023/05/26 02:49:24;;;;;;;16.92;3.60;;;;;;;7.68;100.00;102855.09;4991461;28;20549;-71
2023/05/26 02:51:49;;;;;;;24.92;5.28;;;;;;;7.64;100.00;102854.47;4991264;28;20490;-70
2023/05/26 02:54:14;;;;;;;21.52;6.55;;;;;;;7.63;100.00;102857.28;4991456;28;20044;-70
2023/05/26 02:56:40;;;;;;;16.42;5.45;;;;;;;7.61;100.00;102860.06;4973639;28;20030;-70
2023/05/26 02:59:06;;;;;;;20.75;3.72;;;;;;;7.60;100.00;102858.38;4991157;28;20038;-71
2023/05/26 03:01:31;;;;;;;18.13;4.43;;;;;;;7.57;100.00;102857.78;4991004;28;20030;-71
2023/05/26 03:03:57;;;;;;;13.73;3.33;;;;;;;7.56;100.00;102854.28;4991159;28;20662;-71
2023/05/26 03:06:23;;;;;;;19.65;5.78;;;;;;;7.53;100.00;102848.38;4973473;28;20034;-71
2023/05/26 03:08:48;;;;;;;19.20;4.68;;;;;;;7.51;100.00;102855.63;4991115;28;20038;-71
2023/05/26 03:11:14;;;;;;;20.75;4.55;;;;;;;7.45;100.00;102849.84;4991006;28;20903;-71
2023/05/26 03:13:39;;;;;;;17.20;5.10;;;;;;;7.42;100.00;102850.13;4973203;28;20081;-71
2023/05/26 03:16:05;;;;;;;13.48;3.35;;;;;;;7.41;100.00;102856.41;4990919;28;20125;-71
2023/05/26 03:18:32;;;;;;;15.82;5.43;;;;;;;7.39;100.00;102853.03;4991041;28;20041;-71
2023/05/26 03:20:58;;;;;;;22.55;5.75;;;;;;;7.38;100.00;102853.97;4990986;28;20909;-71
2023/05/26 03:23:24;;;;;;;22.70;4.53;;;;;;;7.34;100.00;102849.06;4991063;28;20116;-71
2023/05/26 03:25:49;;;;;;;23.38;4.07;;;;;;;7.35;100.00;102856.06;4990679;28;20565;-71
2023/05/26 03:28:15;;;;;;;28.38;6.55;;;;;;;7.37;100.00;102864.75;4990656;28;20632;-71
2023/05/26 03:30:40;;;;;;;25.02;5.35;;;;;;;7.28;100.00;102849.56;4990660;28;20062;-71
2023/05/26 03:33:06;;;;;;;16.17;5.50;;;;;;;7.35;100.00;102864.84;4990577;28;20965;-71
2023/05/26 03:35:31;;;;;;;21.48;4.03;;;;;;;7.34;100.00;102868.50;4990416;28;20030;-71
2023/05/26 03:37:57;;;;;;;30.60;6.97;;;;;;;7.34;100.00;102871.16;4990501;28;20076;-71
2023/05/26 03:40:22;;;;;;;18.42;5.00;;;;;;;7.33;100.00;102877.41;4990467;28;20038;-71
2023/05/26 03:42:47;;;;;;;16.52;4.15;;;;;;;7.32;100.00;102872.25;4972902;28;20038;-71
2023/05/26 03:45:13;;;;;;;15.90;3.58;;;;;;;7.34;100.00;102872.97;4990379;28;20042;-71
2023/05/26 03:47:38;;;;;;;21.83;5.50;;;;;;;7.30;100.00;102869.69;4990207;28;20434;-71
2023/05/26 03:50:05;;;;;;;26.02;4.32;;;;;;;7.33;100.00;102877.41;4990499;28;20026;-71
2023/05/26 03:52:31;;;;;;;14.93;4.03;;;;;;;7.35;100.00;102883.44;4971646;28;20058;-71
2023/05/26 03:54:56;;;;;;;21.85;4.47;;;;;;;7.37;100.00;102885.97;4971014;28;20149;-71
2023/05/26 03:57:21;;;;;;;23.52;4.85;;;;;;;7.39;100.00;102890.19;4971521;28;20459;-71
2023/05/26 03:59:47;;;;;;;12.93;3.92;;;;;;;7.40;100.00;102877.75;4971550;28;20033;-71
2023/05/26 04:02:12;;;;;;;21.20;5.78;;;;;;;7.44;100.00;102888.00;4971468;28;20121;-71
2023/05/26 04:04:38;;;;;;;18.65;5.75;;;;;;;7.44;100.00;102877.38;4954040;28;20033;-71
2023/05/26 04:07:04;;;;;;;14.95;3.80;;;;;;;7.47;100.00;102885.09;4971508;28;20042;-71
2023/05/26 04:09:30;;;;;;;18.48;4.40;;;;;;;7.49;100.00;102876.16;4971485;28;20122;-71
2023/05/26 04:11:55;;;;;;;17.45;4.05;;;;;;;7.52;100.00;102876.75;4954032;28;20121;-71
2023/05/26 04:14:21;;;;;;;20.38;4.80;;;;;;;7.53;100.00;102881.09;4971381;28;20045;-71
2023/05/26 04:16:46;;;;;;;18.15;5.53;;;;;;;7.56;100.00;102888.78;4971148;28;20450;-71
2023/05/26 04:19:11;;;;;;;14.90;4.65;;;;;;;7.58;100.00;102889.53;4971160;28;20039;-71
2023/05/26 04:21:37;;;;;;;24.55;3.88;;;;;;;7.59;100.00;102893.00;4971271;28;20415;-71
2023/05/26 04:24:03;;;;;;;18.60;3.47;;;;;;;7.65;100.00;102898.69;4956877;28;20477;-71
2023/05/26 04:26:33;;;;;;;20.08;5.93;;;;;;;7.63;100.00;102884.66;4989715;28;20425;-70
2023/05/26 04:29:01;;;;;;;23.67;6.90;;;;;;;7.68;100.00;102894.91;4989737;28;20058;-70
2023/05/26 04:31:30;;;;;;;18.75;4.00;;;;;;;7.75;100.00;102900.56;4989670;28;20478;-70
2023/05/26 04:33:57;;;;;;;18.35;4.55;;;;;;;7.74;100.00;102877.63;4989539;28;20036;-71
2023/05/26 04:36:23;;;;;;;17.25;5.10;;;;;;;7.80;100.00;102887.72;4989523;28;20030;-71
2023/05/26 04:38:49;;;;;;;21.48;3.80;;;;;;;7.90;100.00;102900.13;4989478;28;20022;-71
2023/05/26 04:41:15;;;;;;;17.92;4.95;;;;;;;7.90;100.00;102893.97;4971946;28;20045;-71
2023/05/26 04:43:43;;;;;;;17.38;3.95;;;;;;;7.94;100.00;102900.72;4989574;28;20037;-71
2023/05/26 04:46:10;;;;;;;18.38;4.90;;;;;;;7.98;100.00;102907.44;4989424;28;20036;-71
2023/05/26 04:48:36;;;;;;;21.80;6.40;;;;;;;8.03;100.00;102902.59;4989359;28;20030;-71
2023/05/26 04:51:02;;;;;;;13.38;3.63;;;;;;;8.07;100.00;102898.72;4989357;28;20038;-71
2023/05/26 04:53:28;;;;;;;22.77;6.35;;;;;;;8.17;100.00;102903.22;4989720;28;20034;-71
2023/05/26 04:55:53;;;;;;;26.23;5.25;;;;;;;8.22;100.00;102901.88;4989302;28;20042;-71
2023/05/26 04:58:19;;;;;;;17.13;3.90;;;;;;;8.25;100.00;102903.41;4989295;28;20065;-71
2023/05/26 05:00:44;;;;;;;16.70;3.97;;;;;;;8.31;100.00;102910.91;4989256;28;20046;-71
2023/05/26 05:03:10;;;;;;;24.95;5.68;;;;;;;8.37;100.00;102907.69;4971697;28;20124;-71
2023/05/26 05:05:35;;;;;;;16.30;5.43;;;;;;;8.44;100.00;102914.22;4990218;28;20390;-71
2023/05/26 05:08:00;;;;;;;24.40;5.47;;;;;;;8.49;100.00;102916.50;4993367;28;20066;-71
2023/05/26 05:10:26;;;;;;;19.38;4.00;;;;;;;8.54;100.00;102904.47;4993317;28;20034;-71
2023/05/26 05:12:53;;;;;;;27.45;7.47;;;;;;;8.63;100.00;102916.13;4993019;28;20042;-71
2023/05/26 05:15:22;;;;;;;16.77;4.50;;;;;;;8.67;100.00;102914.91;4992945;28;20033;-71
2023/05/26 05:17:47;;;;;;;16.98;5.47;;;;;;;8.73;100.00;102924.16;4976081;28;20480;-71
2023/05/26 05:20:13;;;;;;;17.90;6.13;;;;;;;8.75;100.00;102933.69;4992969;28;20113;-71
2023/05/26 05:22:38;;;;;;;23.92;7.88;;;;;;;8.78;100.00;102930.75;4992981;28;20489;-71
2023/05/26 05:25:04;;;;;;;18.00;4.63;;;;;;;8.88;100.00;102921.97;4992789;28;20125;-71
2023/05/26 05:27:29;;;;;;;20.63;4.07;;;;;;;8.95;100.00;102928.44;4992782;28;20113;-71
2023/05/26 05:29:54;;;;;;;22.20;5.20;;;;;;;9.03;99.50;102927.78;4992865;28;21021;-71
2023/05/26 05:32:20;;;;;;;18.92;4.07;;;;;;;9.05;100.00;102923.16;4992853;28;20501;-71
2023/05/26 05:34:45;;;;;;;18.23;4.93;;;;;;;9.15;99.20;102938.19;4992497;28;20464;-71
2023/05/26 05:37:10;;;;;;;22.63;6.72;;;;;;;9.22;98.34;102933.13;4992563;28;20060;-71
2023/05/26 05:39:36;;;;;;;23.15;4.60;;;;;;;9.27;99.07;102932.72;4974098;28;20074;-71
2023/05/26 05:42:01;;;;;;;21.95;5.15;;;;;;;9.24;97.77;102923.19;4956742;28;20086;-71
2023/05/26 05:44:26;;;;;;;22.60;5.13;;;;;;;9.35;97.49;102933.75;4973992;28;20086;-71
2023/05/26 05:46:52;;;;;;;17.48;4.97;;;;;;;9.39;97.87;102937.81;4973875;28;20030;-71
2023/05/26 05:49:17;;;;;;;17.30;4.15;;;;;;;9.43;98.35;102935.69;4973946;28;20437;-71
2023/05/26 05:51:43;;;;;;;15.10;4.97;;;;;;;9.49;98.08;102937.00;4973817;28;20042;-71
2023/05/26 05:54:08;;;;;;;20.38;5.63;;;;;;;9.52;96.45;102934.88;4973924;28;20069;-71
2023/05/26 05:56:34;;;;;;;26.05;5.68;;;;;;;9.46;96.32;102938.13;4992262;28;20154;-71
2023/05/26 05:58:59;;;;;;;19.65;4.85;;;;;;;9.51;97.18;102957.19;4992647;28;20089;-71
2023/05/26 06:01:25;;;;;;;23.10;5.80;;;;;;;9.56;96.71;102951.44;4992117;28;20057;-71
2023/05/26 06:03:51;;;;;;;17.13;4.70;;;;;;;9.58;95.77;102955.63;4991890;28;20055;-71
2023/05/26 06:06:16;;;;;;;15.70;3.78;;;;;;;9.59;96.46;102960.00;4992213;28;20045;-71
2023/05/26 06:08:42;;;;;;;18.20;5.90;;;;;;;9.66;96.11;102961.13;4992371;28;20065;-71
2023/05/26 06:11:07;;;;;;;21.27;6.40;;;;;;;9.72;95.25;102959.75;4992144;28;20034;-71
2023/05/26 06:13:33;;;;;;;19.27;6.55;;;;;;;9.77;95.43;102962.84;4992013;28;20026;-71
2023/05/26 06:15:59;;;;;;;22.35;4.70;;;;;;;9.80;96.38;102962.53;4991818;28;20460;-71
2023/05/26 06:18:24;;;;;;;12.38;3.85;;;;;;;9.82;95.14;102955.25;4991198;28;20109;-71
2023/05/26 06:20:50;;;;;;;18.48;4.25;;;;;;;9.94;93.71;102958.63;4991997;28;20045;-71
2023/05/26 06:23:16;;;;;;;15.07;4.30;;;;;;;9.94;93.51;102971.09;4991947;28;20022;-71
2023/05/26 06:25:41;;;;;;;20.25;5.82;;;;;;;9.96;93.80;102969.97;4991750;28;20477;-71
2023/05/26 06:28:07;;;;;;;18.17;5.50;;;;;;;10.05;94.73;102957.63;4991917;28;20488;-71
2023/05/26 06:30:32;;;;;;;16.35;5.82;;;;;;;10.33;93.79;102971.13;4991512;28;20077;-71
2023/05/26 06:32:57;;;;;;;18.90;4.97;;;;;;;10.43;90.77;102962.13;4991400;28;20034;-72
2023/05/26 06:35:23;;;;;;;23.95;5.22;;;;;;;10.40;91.19;102965.06;4991629;28;20101;-72
2023/05/26 06:37:48;;;;;;;19.25;7.18;;;;;;;10.41;89.72;102961.41;4991439;28;20042;-73
2023/05/26 06:40:14;;;;;;;18.67;6.47;;;;;;;10.42;89.13;102963.06;4991701;28;20057;-72
2023/05/26 06:42:41;;;;;;;15.77;5.25;;;;;;;10.32;90.12;102964.91;4973977;28;20548;-72
2023/05/26 06:45:06;;;;;;;18.75;4.50;;;;;;;10.30;89.32;102975.75;4984310;28;20435;-72
2023/05/26 06:47:32;;;;;;;25.98;5.05;;;;;;;10.33;89.68;102965.78;4988759;28;20117;-72
2023/05/26 06:49:57;;;;;;;12.88;4.38;;;;;;;10.35;88.81;102975.31;4991337;28;20497;-70
2023/05/26 06:52:22;;;;;;;17.85;5.15;;;;;;;10.41;89.68;102968.56;4991294;28;20030;-74
2023/05/26 06:54:48;;;;;;;20.73;4.60;;;;;;;10.46;89.53;102959.16;4991356;28;20355;-73
2023/05/26 06:57:13;;;;;;;18.33;4.13;;;;;;;10.57;88.36;102970.66;4991332;28;20470;-74
2023/05/26 06:59:40;;;;;;;15.98;3.92;;;;;;;10.61;88.78;102970.22;4991044;28;20065;-73
2023/05/26 07:02:06;;;;;;;18.60;5.15;;;;;;;10.66;88.37;102972.44;4985638;28;20063;-72
2023/05/26 07:04:31;;;;;;;22.30;4.35;;;;;;;10.73;86.21;102978.88;4972348;28;20045;-73
2023/05/26 07:06:57;;;;;;;19.35;6.00;;;;;;;10.66;87.94;102967.97;4972479;28;20034;-73
2023/05/26 07:09:22;;;;;;;13.50;3.58;;;;;;;10.76;87.10;102973.25;4954999;28;20466;-73
2023/05/26 07:11:48;;;;;;;20.48;6.30;;;;;;;10.75;86.35;102974.25;4972258;28;20553;-71
2023/05/26 07:14:13;;;;;;;24.30;4.43;;;;;;;10.82;87.65;102966.47;4991027;28;20030;-70
2023/05/26 07:16:38;;;;;;;17.23;3.92;;;;;;;10.95;86.92;102983.00;4973350;28;20049;-70
2023/05/26 07:19:04;;;;;;;24.92;5.95;;;;;;;10.90;85.58;102975.47;4990812;28;20034;-70
2023/05/26 07:21:31;;;;;;;17.45;5.57;;;;;;;10.92;85.50;102972.63;4974473;28;20026;-70
2023/05/26 07:23:56;;;;;;;28.30;4.90;;;;;;;10.86;86.22;102979.41;4970079;28;20061;-70
2023/05/26 07:26:22;;;;;;;18.75;7.07;;;;;;;10.90;86.25;102979.97;4988338;28;20019;-70
2023/05/26 07:28:49;;;;;;;25.95;6.13;;;;;;;10.93;85.14;102977.84;4980435;28;20034;-71
2023/05/26 07:31:14;;;;;;;24.95;5.90;;;;;;;10.95;84.85;102980.34;4981477;28;20042;-71
2023/05/26 07:33:40;;;;;;;19.90;5.80;;;;;;;11.11;85.86;102982.41;4982530;28;20074;-69
2023/05/26 07:36:05;;;;;;;14.98;5.22;;;;;;;11.16;84.35;102980.09;4980770;28;20378;-70
2023/05/26 07:38:31;;;;;;;21.45;6.68;;;;;;;11.19;84.70;102978.00;4982095;28;20065;-72
2023/05/26 07:40:56;;;;;;;14.13;4.13;;;;;;;11.39;85.27;102978.72;4966132;28;20038;-70
2023/05/26 07:43:21;;;;;;;18.90;5.68;;;;;;;11.46;83.89;102988.81;4982030;28;20089;-72
2023/05/26 07:45:47;;;;;;;20.92;4.63;;;;;;;11.40;82.86;102977.75;4981357;28;20382;-71
2023/05/26 07:48:14;;;;;;;19.02;5.25;;;;;;;11.42;84.61;102974.91;4981423;28;20085;-72
2023/05/26 07:50:46;;;;;;;13.73;3.78;;;;;;;11.49;83.47;102973.31;5100967;27;20408;-75
2023/05/26 07:53:12;;;;;;;27.90;6.38;;;;;;;11.56;83.25;102969.06;5133716;27;20106;-70
2023/05/26 07:55:37;;;;;;;14.80;4.57;;;;;;;11.59;82.56;102967.91;5100553;28;20665;-72
2023/05/26 07:58:02;;;;;;;16.20;5.50;;;;;;;11.57;82.70;102975.25;5102149;28;20047;-72
2023/05/26 08:00:28;;;;;;;21.73;4.68;;;;;;;11.56;83.15;102968.22;5103275;28;20028;-71
2023/05/26 08:02:53;;;;;;;14.32;5.20;;;;;;;11.74;82.65;102973.59;5104664;28;20028;-71
2023/05/26 08:05:19;;;;;;;19.67;4.38;;;;;;;11.87;82.19;102973.22;5103166;28;20059;-71
2023/05/26 08:07:44;;;;;;;18.50;5.43;;;;;;;11.98;81.13;102976.53;5104611;28;20035;-71
2023/05/26 08:10:10;;;;;;;12.88;4.55;;;;;;;12.07;79.08;102972.91;5103233;28;20024;-73
2023/05/26 08:12:35;;;;;;;19.20;5.03;;;;;;;12.84;75.74;102973.13;5105050;28;20449;-71
2023/05/26 08:15:13;;;;;;;16.02;4.30;;;;;;;14.61;72.45;102973.78;5105699;28;20458;-72
2023/05/26 08:17:38;;;;;;;15.45;5.97;;;;;;;16.25;61.65;102972.06;5106248;28;20028;-72
2023/05/26 08:20:04;;;;;;;21.75;4.10;;;;;;;17.52;59.42;102967.38;5106136;28;20079;-72
2023/05/26 08:22:29;;;;;;;17.20;5.45;;;;;;;18.51;54.70;102962.03;5105924;28;20036;-72
2023/05/26 08:24:55;;;;;;;15.77;4.40;;;;;;;18.79;52.90;102975.56;5106447;28;20394;-72
2023/05/26 08:27:20;;;;;;;14.02;3.83;;;;;;;19.37;52.61;102977.06;5106412;28;20028;-71
2023/05/26 08:29:46;;;;;;;17.92;6.00;;;;;;;19.01;49.84;102981.69;5106465;28;20023;-72
2023/05/26 08:32:11;;;;;;;18.55;7.55;;;;;;;19.16;49.18;102978.84;5106217;28;20035;-72
2023/05/26 08:34:36;;;;;;;12.95;3.83;;;;;;;19.95;47.71;102979.28;5106077;28;20036;-72
2023/05/26 08:37:01;;;;;;;12.77;3.75;;;;;;;19.87;47.44;102972.19;5106002;28;20516;-72
2023/05/26 08:39:27;;;;;;;14.18;4.40;;;;;;;20.20;47.29;102972.22;5105817;28;20023;-71
2023/05/26 08:42:06;;;;;;;17.30;3.30;;;;;;;20.36;47.05;102973.66;5105819;28;20039;-72
2023/05/26 08:44:33;;;;;;;8.63;3.22;;;;;;;20.16;46.40;102967.41;5105713;28;20097;-71
2023/05/26 08:47:01;;;;;;;13.00;3.92;;;;;;;20.18;46.64;102966.16;5105537;28;20058;-71
2023/05/26 08:49:30;;;;;;;15.48;4.00;;;;;;;20.42;45.94;102964.66;5105413;28;20040;-71
2023/05/26 08:52:02;;;;;;;14.32;4.60;;;;;;;21.07;44.95;102966.63;5105592;28;20110;-71
2023/05/26 08:54:27;;;;;;;16.13;5.07;;;;;;;21.18;43.62;102958.63;5105940;28;20443;-71
2023/05/26 08:56:56;;;;;;;15.82;4.15;;;;;;;21.21;42.46;102962.78;5105854;28;20060;-71
2023/05/26 08:59:22;;;;;;;12.70;4.47;;;;;;;19.64;45.37;102967.94;5105756;28;20024;-72
2023/05/26 09:01:47;;;;;;;18.15;4.60;;;;;;;17.69;50.61;102965.28;5094215;28;20042;-71
2023/05/26 09:04:13;;;;;;;11.35;4.18;;;;;;;16.49;52.79;102963.75;5091820;28;20024;-71
2023/05/26 09:06:43;;;;;;;14.40;4.40;;;;;;;15.78;54.72;102964.03;5091613;28;20161;-71
2023/05/26 09:09:08;;;;;;;16.90;4.03;;;;;;;15.37;57.79;102970.66;5091337;28;20162;-71
2023/05/26 09:11:40;;;;;;;11.27;3.05;;;;;;;15.08;58.09;102959.50;5091625;28;20028;-71
2023/05/26 09:14:05;;;;;;;;;;;;;;;14.98;58.80;102971.47;5092141;28;20035;-71
2023/05/26 09:16:31;;;;;;;21.60;5.20;;;;;;;14.48;58.43;102962.69;5090710;28;19923;-71
2023/05/26 09:18:58;;;;;;;19.83;4.88;;;;;;;14.37;59.92;102971.94;5091418;28;20123;-71
2023/05/26 09:21:26;;;;;;;16.33;3.85;;;;;;;14.18;59.55;102966.94;5091419;28;20024;-71
2023/05/26 09:23:56;;;;;;;17.30;5.40;;;;;;;14.20;61.67;102964.91;5091486;28;20032;-71
2023/05/26 09:26:27;;;;;;;21.52;3.95;;;;;;;14.24;62.21;102956.34;5091399;28;20032;-71
2023/05/26 09:28:52;;;;;;;10.90;3.30;;;;;;;14.38;63.38;102959.34;5091221;28;20121;-71
2023/05/26 09:31:18;;;;;;;15.68;4.20;;;;;;;14.39;63.57;102967.25;5091159;28;20107;-72
2023/05/26 09:33:46;;;;;;;17.00;3.72;;;;;;;14.37;60.33;102971.94;5091268;28;20035;-70
2023/05/26 09:36:11;;;;;;;9.95;3.22;;;;;;;14.31;58.64;102972.63;5091232;28;20314;-72
2023/05/26 09:38:37;;;;;;;14.85;4.60;;;;;;;14.12;58.94;102975.63;5091283;28;20077;-71
2023/05/26 09:41:02;;;;;;;16.88;4.72;;;;;;;14.09;58.34;102973.28;5091184;28;20480;-71
2023/05/26 09:43:32;;;;;;;18.85;4.03;;;;;;;14.14;58.95;102977.16;5089942;28;20126;-71
2023/05/26 09:45:57;;;;;;;18.00;5.57;;;;;;;14.16;59.93;102958.22;5090007;28;20024;-71
2023/05/26 09:48:23;;;;;;;9.82;4.20;;;;;;;14.35;58.82;102965.06;5090513;28;20047;-71
2023/05/26 09:50:51;;;;;;;18.67;5.07;;;;;;;14.52;58.50;102973.94;5091099;28;20036;-71
2023/05/26 09:53:16;;;;;;;15.80;4.13;;;;;;;14.57;60.53;102963.56;5090821;28;20069;-70
2023/05/26 09:55:43;;;;;;;16.48;4.38;;;;;;;14.53;59.80;102949.63;5090781;28;20035;-71
2023/05/26 09:58:10;;;;;;;12.52;5.60;;;;;;;14.67;58.73;102957.00;5090806;28;20032;-71
2023/05/26 10:00:39;;;;;;;14.45;4.25;;;;;;;14.64;59.42;102943.03;5091043;28;20027;-71
2023/05/26 10:03:06;;;;;;;16.85;5.00;;;;;;;14.80;58.97;102960.97;5090708;28;20114;-71
2023/05/26 10:05:33;;;;;;;15.25;4.57;;;;;;;14.81;57.63;102959.97;5090910;28;20058;-71
2023/05/26 10:08:00;;;;;;;16.25;4.80;;;;;;;14.85;56.42;102958.59;5090555;28;20054;-71
2023/05/26 10:10:30;;;;;;;10.40;3.42;;;;;;;14.94;56.49;102959.44;5090464;28;20016;-71
2023/05/26 10:12:56;;;;;;;15.27;4.60;;;;;;;14.89;56.22;102962.63;5089385;28;20031;-71
2023/05/26 10:15:22;;;;;;;9.98;3.90;;;;;;;15.02;56.39;102949.47;5090389;28;20521;-71
2023/05/26 10:17:48;;;;;;;17.10;4.05;;;;;;;15.10;56.29;102954.81;5090612;28;20028;-71
2023/05/26 10:20:14;;;;;;;12.48;4.35;;;;;;;15.15;55.21;102951.59;5090361;28;20429;-71
2023/05/26 10:22:43;;;;;;;13.95;3.22;;;;;;;15.22;57.11;102939.13;5090227;28;20122;-71
2023/05/26 10:25:25;;;;;;;14.82;4.22;;;;;;;15.17;56.17;102943.34;5090415;28;20049;-71
2023/05/26 10:28:27;;;;;;;14.98;4.15;;;;;;;15.27;56.39;102933.22;5089957;28;20062;-71
2023/05/26 10:31:01;;;;;;;14.75;4.75;;;;;;;15.37;55.55;102943.75;5090109;28;20028;-71
2023/05/26 10:33:41;;;;;;;12.00;3.65;;;;;;;15.50;55.72;102944.00;5090050;28;20100;-71
2023/05/26 10:36:14;;;;;;;14.30;5.28;;;;;;;15.47;52.59;102939.00;5090079;28;20467;-72
2023/05/26 10:38:44;;;;;;;13.68;4.55;;;;;;;15.42;52.80;102941.38;5090000;28;20046;-72
2023/05/26 10:41:14;;;;;;;32.33;4.97;;;;;;;15.40;53.83;102938.84;5088845;28;20028;-71
2023/05/26 10:43:42;;;;;;;12.70;4.15;;;;;;;15.55;56.10;102928.16;5089830;28;20138;-71
2023/05/26 10:46:08;;;;;;;13.10;4.13;;;;;;;15.65;53.97;102928.78;5090053;28;20137;-71
2023/05/26 10:48:40;;;;;;;17.67;4.55;;;;;;;15.58;53.92;102917.06;5089462;28;20522;-71
2023/05/26 10:51:06;;;;;;;14.23;3.85;;;;;;;15.75;52.55;102937.47;5089943;28;20032;-71
2023/05/26 10:53:33;;;;;;;14.50;4.40;;;;;;;15.78;50.85;102933.59;5089765;28;20094;-71
2023/05/26 10:56:04;;;;;;;10.73;3.92;;;;;;;15.76;48.92;102928.38;5089712;28;20031;-71
2023/05/26 10:58:45;;;;;;;12.23;4.10;;;;;;;15.83;51.38;102916.91;5089661;28;20016;-71
2023/05/26 11:01:15;;;;;;;14.13;4.53;;;;;;;16.16;52.84;102926.34;5089742;28;20493;-71
2023/05/26 11:03:49;;;;;;;13.85;3.97;;;;;;;16.20;50.81;102916.91;5088185;28;20157;-72
2023/05/26 11:06:16;;;;;;;10.68;3.80;;;;;;;16.20;51.09;102924.16;5089640;28;20027;-71
2023/05/26 11:08:49;;;;;;;20.38;4.25;;;;;;;16.25;51.82;102934.38;5089473;28;20027;-71
2023/05/26 11:11:30;;;;;;;21.38;3.80;;;;;;;16.32;53.62;102916.44;5089589;28;20038;-71
2023/05/26 11:14:09;;;;;;;12.38;4.63;;;;;;;16.32;51.62;102916.44;5089204;28;20020;-71
2023/05/26 11:16:37;;;;;;;10.23;3.03;;;;;;;16.31;47.11;102921.00;5089445;28;20081;-72
2023/05/26 11:19:04;;;;;;;7.20;3.05;;;;;;;16.29;48.77;102923.03;5089659;28;20047;-71